sensor_id;sensor_type;location;lat;lon;timestamp;pressure;altitude;pressure_sealevel;temperature;humidity
81961;BME280;71462;50.650;6.888;2024-03-25T00:01:40;98970.47;;;2.48;73.84
81961;BME280;71462;50.650;6.888;2024-03-25T00:04:07;98962.13;;;2.57;72.37
81961;BME280;71462;50.650;6.888;2024-03-25T00:06:34;98966.63;;;2.56;72.39
81961;BME280;71462;50.650;6.888;2024-03-25T00:09:01;98969.25;;;2.56;72.90
81961;BME280;71462;50.650;6.888;2024-03-25T00:11:28;98975.59;;;2.55;73.22
81961;BME280;71462;50.650;6.888;2024-03-25T00:13:54;98978.75;;;2.84;70.58
81961;BME280;71462;50.650;6.888;2024-03-25T00:16:22;98972.69;;;2.57;72.59
81961;BME280;71462;50.650;6.888;2024-03-25T00:18:47;98980.28;;;3.12;70.10
81961;BME280;71462;50.650;6.888;2024-03-25T00:21:16;98972.31;;;3.07;70.19
81961;BME280;71462;50.650;6.888;2024-03-25T00:23:41;98979.13;;;2.98;71.21
81961;BME280;71462;50.650;6.888;2024-03-25T00:26:08;98973.50;;;2.57;72.00
81961;BME280;71462;50.650;6.888;2024-03-25T00:28:34;98973.38;;;2.74;71.33
81961;BME280;71462;50.650;6.888;2024-03-25T00:31:00;98971.53;;;2.74;71.40
81961;BME280;71462;50.650;6.888;2024-03-25T00:33:26;98968.69;;;2.27;73.07
81961;BME280;71462;50.650;6.888;2024-03-25T00:35:53;98961.47;;;2.44;72.53
81961;BME280;71462;50.650;6.888;2024-03-25T00:38:20;98973.22;;;2.32;72.39
81961;BME280;71462;50.650;6.888;2024-03-25T00:40:46;98966.16;;;2.64;72.35
81961;BME280;71462;50.650;6.888;2024-03-25T00:43:13;98976.84;;;2.26;73.59
81961;BME280;71462;50.650;6.888;2024-03-25T00:45:40;98980.50;;;2.46;73.18
81961;BME280;71462;50.650;6.888;2024-03-25T00:48:07;98978.19;;;2.28;74.23
81961;BME280;71462;50.650;6.888;2024-03-25T00:50:33;98980.34;;;1.87;75.39
81961;BME280;71462;50.650;6.888;2024-03-25T00:52:59;98987.00;;;2.39;73.14
81961;BME280;71462;50.650;6.888;2024-03-25T00:55:26;98990.28;;;2.24;74.09
81961;BME280;71462;50.650;6.888;2024-03-25T00:57:53;98984.41;;;2.44;73.60
81961;BME280;71462;50.650;6.888;2024-03-25T01:00:19;98971.44;;;2.64;72.52
81961;BME280;71462;50.650;6.888;2024-03-25T01:02:46;98973.00;;;2.92;71.51
81961;BME280;71462;50.650;6.888;2024-03-25T01:05:12;98974.38;;;3.00;71.09
81961;BME280;71462;50.650;6.888;2024-03-25T01:07:39;98968.50;;;2.61;72.74
81961;BME280;71462;50.650;6.888;2024-03-25T01:10:05;98968.03;;;2.96;71.14
81961;BME280;71462;50.650;6.888;2024-03-25T01:12:34;98971.19;;;2.66;71.67
81961;BME280;71462;50.650;6.888;2024-03-25T01:15:00;98968.84;;;3.38;69.22
81961;BME280;71462;50.650;6.888;2024-03-25T01:17:27;98962.25;;;3.04;71.01
81961;BME280;71462;50.650;6.888;2024-03-25T01:19:53;98966.53;;;2.78;70.76
81961;BME280;71462;50.650;6.888;2024-03-25T01:22:20;98970.06;;;2.89;70.64
81961;BME280;71462;50.650;6.888;2024-03-25T01:24:45;98982.09;;;2.20;72.76
81961;BME280;71462;50.650;6.888;2024-03-25T01:27:12;98965.88;;;2.34;73.27
81961;BME280;71462;50.650;6.888;2024-03-25T01:29:39;98971.78;;;2.46;73.01
81961;BME280;71462;50.650;6.888;2024-03-25T01:32:06;98974.84;;;1.72;75.12
81961;BME280;71462;50.650;6.888;2024-03-25T01:34:32;98975.81;;;2.05;73.69
81961;BME280;71462;50.650;6.888;2024-03-25T01:36:59;98966.31;;;2.26;73.03
81961;BME280;71462;50.650;6.888;2024-03-25T01:39:24;98968.66;;;2.22;72.08
81961;BME280;71462;50.650;6.888;2024-03-25T01:41:51;98980.41;;;2.14;72.37
81961;BME280;71462;50.650;6.888;2024-03-25T01:44:17;98972.88;;;2.23;73.17
81961;BME280;71462;50.650;6.888;2024-03-25T01:46:45;98965.91;;;2.39;72.01
81961;BME280;71462;50.650;6.888;2024-03-25T01:49:11;98966.63;;;2.56;71.55
81961;BME280;71462;50.650;6.888;2024-03-25T01:51:39;98977.72;;;2.09;72.12
81961;BME280;71462;50.650;6.888;2024-03-25T01:54:06;98968.28;;;1.91;73.84
81961;BME280;71462;50.650;6.888;2024-03-25T01:56:35;98976.38;;;1.29;76.00
81961;BME280;71462;50.650;6.888;2024-03-25T01:59:02;98980.56;;;1.47;75.52
81961;BME280;71462;50.650;6.888;2024-03-25T02:01:30;98976.09;;;1.65;74.06
81961;BME280;71462;50.650;6.888;2024-03-25T02:03:57;98973.13;;;2.00;73.27
81961;BME280;71462;50.650;6.888;2024-03-25T02:06:26;98971.44;;;2.15;72.00
81961;BME280;71462;50.650;6.888;2024-03-25T02:08:53;98972.44;;;2.31;71.18
81961;BME280;71462;50.650;6.888;2024-03-25T02:11:22;98973.28;;;2.37;70.23
81961;BME280;71462;50.650;6.888;2024-03-25T02:13:51;98960.97;;;2.47;70.00
81961;BME280;71462;50.650;6.888;2024-03-25T02:16:18;98978.41;;;2.21;70.55
81961;BME280;71462;50.650;6.888;2024-03-25T02:18:44;98982.56;;;1.96;71.89
81961;BME280;71462;50.650;6.888;2024-03-25T02:21:12;98988.81;;;1.73;72.72
81961;BME280;71462;50.650;6.888;2024-03-25T02:23:39;98972.09;;;1.62;72.96
81961;BME280;71462;50.650;6.888;2024-03-25T02:26:10;98978.59;;;1.54;73.71
81961;BME280;71462;50.650;6.888;2024-03-25T02:28:36;98977.63;;;1.60;73.20
81961;BME280;71462;50.650;6.888;2024-03-25T02:31:02;98979.81;;;2.07;70.85
81961;BME280;71462;50.650;6.888;2024-03-25T02:33:28;98983.38;;;1.79;72.47
81961;BME280;71462;50.650;6.888;2024-03-25T02:35:55;98979.63;;;1.37;73.39
81961;BME280;71462;50.650;6.888;2024-03-25T02:38:21;98979.81;;;1.30;74.08
81961;BME280;71462;50.650;6.888;2024-03-25T02:40:48;98976.44;;;1.73;72.28
81961;BME280;71462;50.650;6.888;2024-03-25T02:43:17;98979.63;;;1.53;72.50
81961;BME280;71462;50.650;6.888;2024-03-25T02:45:46;98972.13;;;1.45;72.91
81961;BME280;71462;50.650;6.888;2024-03-25T02:48:12;98973.56;;;1.19;73.75
81961;BME280;71462;50.650;6.888;2024-03-25T02:50:39;98965.47;;;1.21;73.77
81961;BME280;71462;50.650;6.888;2024-03-25T02:53:05;98968.66;;;1.06;74.11
81961;BME280;71462;50.650;6.888;2024-03-25T02:55:33;98967.34;;;1.42;73.57
81961;BME280;71462;50.650;6.888;2024-03-25T02:57:58;98965.69;;;1.36;72.85
81961;BME280;71462;50.650;6.888;2024-03-25T03:00:27;98961.69;;;1.34;73.48
81961;BME280;71462;50.650;6.888;2024-03-25T03:02:52;98958.56;;;1.53;72.69
81961;BME280;71462;50.650;6.888;2024-03-25T03:05:19;98959.97;;;1.22;72.96
81961;BME280;71462;50.650;6.888;2024-03-25T03:07:45;98957.63;;;1.09;74.11
81961;BME280;71462;50.650;6.888;2024-03-25T03:10:12;98960.44;;;0.69;76.33
81961;BME280;71462;50.650;6.888;2024-03-25T03:12:37;98952.75;;;1.18;73.75
81961;BME280;71462;50.650;6.888;2024-03-25T03:15:05;98956.53;;;1.60;71.67
81961;BME280;71462;50.650;6.888;2024-03-25T03:17:32;98948.56;;;1.94;71.26
81961;BME280;71462;50.650;6.888;2024-03-25T03:19:59;98944.66;;;1.80;69.72
81961;BME280;71462;50.650;6.888;2024-03-25T03:22:25;98941.22;;;2.50;67.91
81961;BME280;71462;50.650;6.888;2024-03-25T03:24:52;98941.41;;;2.70;66.61
81961;BME280;71462;50.650;6.888;2024-03-25T03:27:18;98942.25;;;2.76;66.15
81961;BME280;71462;50.650;6.888;2024-03-25T03:29:47;98945.63;;;2.71;66.52
81961;BME280;71462;50.650;6.888;2024-03-25T03:32:13;98942.66;;;2.95;65.57
81961;BME280;71462;50.650;6.888;2024-03-25T03:34:41;98947.84;;;2.26;66.15
81961;BME280;71462;50.650;6.888;2024-03-25T03:37:07;98953.56;;;2.71;65.93
81961;BME280;71462;50.650;6.888;2024-03-25T03:39:33;98944.81;;;2.66;65.23
81961;BME280;71462;50.650;6.888;2024-03-25T03:41:59;98938.03;;;3.12;64.54
81961;BME280;71462;50.650;6.888;2024-03-25T03:44:26;98940.28;;;2.93;64.09
81961;BME280;71462;50.650;6.888;2024-03-25T03:46:52;98942.25;;;2.76;64.11
81961;BME280;71462;50.650;6.888;2024-03-25T03:49:18;98939.47;;;2.61;65.24
81961;BME280;71462;50.650;6.888;2024-03-25T03:51:45;98948.84;;;3.10;64.19
81961;BME280;71462;50.650;6.888;2024-03-25T03:54:12;98952.44;;;2.94;64.34
81961;BME280;71462;50.650;6.888;2024-03-25T03:56:39;98951.22;;;2.21;66.28
81961;BME280;71462;50.650;6.888;2024-03-25T03:59:05;98954.66;;;2.48;66.56
81961;BME280;71462;50.650;6.888;2024-03-25T04:01:31;98951.47;;;2.46;65.89
81961;BME280;71462;50.650;6.888;2024-03-25T04:03:58;98947.44;;;2.39;66.45
81961;BME280;71462;50.650;6.888;2024-03-25T04:06:24;98948.75;;;2.63;65.11
81961;BME280;71462;50.650;6.888;2024-03-25T04:08:52;98939.59;;;2.76;65.50
81961;BME280;71462;50.650;6.888;2024-03-25T04:11:18;98935.59;;;2.68;65.14
81961;BME280;71462;50.650;6.888;2024-03-25T04:13:46;98937.84;;;2.54;65.50
81961;BME280;71462;50.650;6.888;2024-03-25T04:16:12;98943.63;;;2.24;66.37
81961;BME280;71462;50.650;6.888;2024-03-25T04:18:38;98940.63;;;2.70;64.60
81961;BME280;71462;50.650;6.888;2024-03-25T04:21:11;98942.78;;;2.78;65.04
81961;BME280;71462;50.650;6.888;2024-03-25T04:23:38;98941.44;;;3.07;63.21
81961;BME280;71462;50.650;6.888;2024-03-25T04:26:06;98930.75;;;3.29;61.70
81961;BME280;71462;50.650;6.888;2024-03-25T04:28:34;98937.13;;;3.38;61.06
81961;BME280;71462;50.650;6.888;2024-03-25T04:31:00;98941.47;;;3.12;61.83
81961;BME280;71462;50.650;6.888;2024-03-25T04:33:26;98933.69;;;2.96;60.52
81961;BME280;71462;50.650;6.888;2024-03-25T04:35:53;98935.84;;;2.13;64.27
81961;BME280;71462;50.650;6.888;2024-03-25T04:38:20;98942.69;;;1.70;66.27
81961;BME280;71462;50.650;6.888;2024-03-25T04:40:46;98944.69;;;1.85;66.15
81961;BME280;71462;50.650;6.888;2024-03-25T04:43:13;98944.19;;;2.05;66.29
81961;BME280;71462;50.650;6.888;2024-03-25T04:45:39;98944.63;;;1.36;68.59
81961;BME280;71462;50.650;6.888;2024-03-25T04:48:05;98948.63;;;1.60;67.51
81961;BME280;71462;50.650;6.888;2024-03-25T04:50:31;98943.31;;;1.77;67.09
81961;BME280;71462;50.650;6.888;2024-03-25T04:52:57;98953.03;;;1.55;68.06
81961;BME280;71462;50.650;6.888;2024-03-25T04:55:23;98951.25;;;1.82;66.52
81961;BME280;71462;50.650;6.888;2024-03-25T04:57:49;98950.13;;;1.18;67.77
81961;BME280;71462;50.650;6.888;2024-03-25T05:00:16;98946.63;;;1.68;67.18
81961;BME280;71462;50.650;6.888;2024-03-25T05:02:42;98947.22;;;1.75;67.46
81961;BME280;71462;50.650;6.888;2024-03-25T05:05:08;98956.78;;;1.20;68.46
81961;BME280;71462;50.650;6.888;2024-03-25T05:07:34;98953.06;;;0.54;71.53
81961;BME280;71462;50.650;6.888;2024-03-25T05:10:00;98952.72;;;0.96;69.57
81961;BME280;71462;50.650;6.888;2024-03-25T05:12:26;98955.88;;;1.31;68.24
81961;BME280;71462;50.650;6.888;2024-03-25T05:14:52;98959.72;;;1.84;66.65
81961;BME280;71462;50.650;6.888;2024-03-25T05:17:19;98952.78;;;1.95;65.24
81961;BME280;71462;50.650;6.888;2024-03-25T05:19:45;98946.56;;;1.24;67.32
81961;BME280;71462;50.650;6.888;2024-03-25T05:22:10;98950.09;;;0.96;69.02
81961;BME280;71462;50.650;6.888;2024-03-25T05:24:36;98950.00;;;1.24;67.55
81961;BME280;71462;50.650;6.888;2024-03-25T05:27:02;98940.06;;;1.31;67.11
81961;BME280;71462;50.650;6.888;2024-03-25T05:29:28;98943.22;;;1.50;67.39
81961;BME280;71462;50.650;6.888;2024-03-25T05:31:58;98949.44;;;1.22;67.35
81961;BME280;71462;50.650;6.888;2024-03-25T05:34:26;98951.34;;;0.93;68.90
81961;BME280;71462;50.650;6.888;2024-03-25T05:36:53;98961.03;;;1.43;67.33
81961;BME280;71462;50.650;6.888;2024-03-25T05:39:19;98953.50;;;1.13;68.95
81961;BME280;71462;50.650;6.888;2024-03-25T05:41:45;98964.66;;;0.87;69.37
81961;BME280;71462;50.650;6.888;2024-03-25T05:44:11;98954.44;;;0.57;70.58
81961;BME280;71462;50.650;6.888;2024-03-25T05:46:37;98955.88;;;1.15;69.12
81961;BME280;71462;50.650;6.888;2024-03-25T05:49:03;98949.81;;;1.14;68.94
81961;BME280;71462;50.650;6.888;2024-03-25T05:51:31;98962.59;;;0.89;70.76
81961;BME280;71462;50.650;6.888;2024-03-25T05:53:57;98958.44;;;1.26;68.49
81961;BME280;71462;50.650;6.888;2024-03-25T05:56:23;98965.47;;;1.59;67.43
81961;BME280;71462;50.650;6.888;2024-03-25T05:58:49;98964.59;;;0.98;68.95
81961;BME280;71462;50.650;6.888;2024-03-25T06:01:14;98971.63;;;0.93;69.10
81961;BME280;71462;50.650;6.888;2024-03-25T06:03:40;98972.53;;;1.54;67.67
81961;BME280;71462;50.650;6.888;2024-03-25T06:06:06;98965.50;;;1.43;67.54
81961;BME280;71462;50.650;6.888;2024-03-25T06:08:33;98965.97;;;1.95;66.41
81961;BME280;71462;50.650;6.888;2024-03-25T06:11:03;98970.13;;;1.91;66.10
81961;BME280;71462;50.650;6.888;2024-03-25T06:13:29;98966.38;;;2.09;64.55
81961;BME280;71462;50.650;6.888;2024-03-25T06:15:55;98965.88;;;2.34;64.73
81961;BME280;71462;50.650;6.888;2024-03-25T06:18:21;98961.34;;;2.29;64.95
81961;BME280;71462;50.650;6.888;2024-03-25T06:20:46;98958.16;;;2.54;63.31
81961;BME280;71462;50.650;6.888;2024-03-25T06:23:22;98963.09;;;2.77;62.99
81961;BME280;71462;50.650;6.888;2024-03-25T06:25:51;98969.03;;;2.90;62.94
81961;BME280;71462;50.650;6.888;2024-03-25T06:28:17;98961.91;;;2.90;63.34
81961;BME280;71462;50.650;6.888;2024-03-25T06:30:42;98964.53;;;2.58;63.54
81961;BME280;71462;50.650;6.888;2024-03-25T06:33:27;98967.41;;;2.83;64.06
81961;BME280;71462;50.650;6.888;2024-03-25T06:36:11;98962.91;;;2.84;63.17
81961;BME280;71462;50.650;6.888;2024-03-25T06:38:37;98967.50;;;2.99;63.15
81961;BME280;71462;50.650;6.888;2024-03-25T06:41:04;98970.72;;;3.43;61.81
81961;BME280;71462;50.650;6.888;2024-03-25T06:43:30;98974.28;;;3.22;62.09
81961;BME280;71462;50.650;6.888;2024-03-25T06:45:56;98978.69;;;3.48;61.31
81961;BME280;71462;50.650;6.888;2024-03-25T06:48:22;98978.50;;;2.85;63.13
81961;BME280;71462;50.650;6.888;2024-03-25T06:50:54;98972.75;;;3.78;60.67
81961;BME280;71462;50.650;6.888;2024-03-25T06:53:20;98972.31;;;3.91;59.46
81961;BME280;71462;50.650;6.888;2024-03-25T06:55:52;98969.97;;;4.05;60.24
81961;BME280;71462;50.650;6.888;2024-03-25T06:58:20;98979.94;;;4.50;58.69
81961;BME280;71462;50.650;6.888;2024-03-25T07:00:47;98972.28;;;4.74;58.34
81961;BME280;71462;50.650;6.888;2024-03-25T07:03:13;98971.38;;;4.28;58.46
81961;BME280;71462;50.650;6.888;2024-03-25T07:05:39;98970.19;;;5.12;57.11
81961;BME280;71462;50.650;6.888;2024-03-25T07:08:05;98968.72;;;4.18;60.02
81961;BME280;71462;50.650;6.888;2024-03-25T07:10:31;98977.84;;;5.33;57.71
81961;BME280;71462;50.650;6.888;2024-03-25T07:12:56;98978.13;;;4.86;57.85
81961;BME280;71462;50.650;6.888;2024-03-25T07:15:24;98982.88;;;5.30;56.33
81961;BME280;71462;50.650;6.888;2024-03-25T07:17:49;98981.81;;;5.46;55.29
81961;BME280;71462;50.650;6.888;2024-03-25T07:20:15;98977.88;;;5.18;57.47
81961;BME280;71462;50.650;6.888;2024-03-25T07:22:41;98976.16;;;5.73;54.97
81961;BME280;71462;50.650;6.888;2024-03-25T07:25:07;98971.34;;;5.90;54.67
81961;BME280;71462;50.650;6.888;2024-03-25T07:27:32;98968.97;;;5.84;54.98
81961;BME280;71462;50.650;6.888;2024-03-25T07:29:58;98980.03;;;6.11;57.28
81961;BME280;71462;50.650;6.888;2024-03-25T07:32:25;98967.19;;;6.78;53.97
81961;BME280;71462;50.650;6.888;2024-03-25T07:34:51;98967.47;;;6.71;52.28
81961;BME280;71462;50.650;6.888;2024-03-25T07:37:17;98970.88;;;5.68;54.12
81961;BME280;71462;50.650;6.888;2024-03-25T07:39:43;98963.25;;;5.46;56.02
81961;BME280;71462;50.650;6.888;2024-03-25T07:42:11;98971.09;;;5.82;54.40
81961;BME280;71462;50.650;6.888;2024-03-25T07:44:37;98961.38;;;6.71;54.37
81961;BME280;71462;50.650;6.888;2024-03-25T07:47:03;98959.50;;;7.63;50.99
81961;BME280;71462;50.650;6.888;2024-03-25T07:49:30;98961.97;;;6.63;52.40
81961;BME280;71462;50.650;6.888;2024-03-25T07:51:55;98957.88;;;6.80;52.78
81961;BME280;71462;50.650;6.888;2024-03-25T07:54:21;98960.53;;;7.91;50.61
81961;BME280;71462;50.650;6.888;2024-03-25T07:56:47;98963.13;;;8.76;48.39
81961;BME280;71462;50.650;6.888;2024-03-25T07:59:13;98960.81;;;9.21;47.57
81961;BME280;71462;50.650;6.888;2024-03-25T08:01:38;98968.41;;;9.74;46.23
81961;BME280;71462;50.650;6.888;2024-03-25T08:04:04;98966.78;;;10.14;44.54
81961;BME280;71462;50.650;6.888;2024-03-25T08:06:31;98969.66;;;10.18;44.95
81961;BME280;71462;50.650;6.888;2024-03-25T08:08:57;98962.16;;;10.56;44.76
81961;BME280;71462;50.650;6.888;2024-03-25T08:11:23;98961.59;;;10.81;41.90
81961;BME280;71462;50.650;6.888;2024-03-25T08:13:49;98966.16;;;11.03;41.62
81961;BME280;71462;50.650;6.888;2024-03-25T08:16:14;98961.91;;;10.44;41.69
81961;BME280;71462;50.650;6.888;2024-03-25T08:18:40;98959.84;;;9.31;43.01
81961;BME280;71462;50.650;6.888;2024-03-25T08:21:06;98965.59;;;9.65;44.78
81961;BME280;71462;50.650;6.888;2024-03-25T08:23:33;98966.66;;;10.47;42.40
81961;BME280;71462;50.650;6.888;2024-03-25T08:25:59;98966.38;;;10.93;41.22
81961;BME280;71462;50.650;6.888;2024-03-25T08:28:25;98960.97;;;11.07;39.84
81961;BME280;71462;50.650;6.888;2024-03-25T08:30:50;98962.94;;;11.23;39.65
81961;BME280;71462;50.650;6.888;2024-03-25T08:33:16;98953.66;;;11.21;39.45
81961;BME280;71462;50.650;6.888;2024-03-25T08:35:42;98970.56;;;10.13;41.83
81961;BME280;71462;50.650;6.888;2024-03-25T08:38:07;98964.25;;;10.81;40.90
81961;BME280;71462;50.650;6.888;2024-03-25T08:40:35;98958.81;;;11.40;39.89
81961;BME280;71462;50.650;6.888;2024-03-25T08:43:00;98955.50;;;11.65;37.69
81961;BME280;71462;50.650;6.888;2024-03-25T08:45:26;98953.22;;;11.98;37.79
81961;BME280;71462;50.650;6.888;2024-03-25T08:47:52;98950.88;;;12.23;36.82
81961;BME280;71462;50.650;6.888;2024-03-25T08:50:18;98949.81;;;12.49;36.52
81961;BME280;71462;50.650;6.888;2024-03-25T08:52:44;98943.94;;;12.13;36.53
81961;BME280;71462;50.650;6.888;2024-03-25T08:55:09;98947.97;;;12.67;36.27
81961;BME280;71462;50.650;6.888;2024-03-25T08:57:37;98945.25;;;12.85;35.75
81961;BME280;71462;50.650;6.888;2024-03-25T09:00:03;98941.47;;;13.03;35.79
81961;BME280;71462;50.650;6.888;2024-03-25T09:02:29;98939.69;;;13.24;36.50
81961;BME280;71462;50.650;6.888;2024-03-25T09:04:55;98939.44;;;13.47;36.14
81961;BME280;71462;50.650;6.888;2024-03-25T09:07:21;98937.81;;;13.07;35.31
81961;BME280;71462;50.650;6.888;2024-03-25T09:09:47;98930.63;;;13.37;35.31
81961;BME280;71462;50.650;6.888;2024-03-25T09:12:32;98932.16;;;13.00;36.17
81961;BME280;71462;50.650;6.888;2024-03-25T09:14:59;98927.41;;;12.89;36.34
81961;BME280;71462;50.650;6.888;2024-03-25T09:17:25;98925.69;;;12.41;36.76
81961;BME280;71462;50.650;6.888;2024-03-25T09:19:50;98919.56;;;12.66;36.52
81961;BME280;71462;50.650;6.888;2024-03-25T09:22:16;98933.06;;;12.01;36.73
81961;BME280;71462;50.650;6.888;2024-03-25T09:24:42;98923.50;;;12.60;35.62
81961;BME280;71462;50.650;6.888;2024-03-25T09:27:08;98922.56;;;12.65;35.89
81961;BME280;71462;50.650;6.888;2024-03-25T09:29:34;98911.97;;;12.86;35.54
81961;BME280;71462;50.650;6.888;2024-03-25T09:32:01;98911.19;;;12.76;36.08
81961;BME280;71462;50.650;6.888;2024-03-25T09:34:26;98915.16;;;12.70;36.54
81961;BME280;71462;50.650;6.888;2024-03-25T09:36:52;98910.66;;;13.09;36.33
81961;BME280;71462;50.650;6.888;2024-03-25T09:39:18;98915.22;;;13.55;35.82
81961;BME280;71462;50.650;6.888;2024-03-25T09:41:44;98909.25;;;13.88;34.78
81961;BME280;71462;50.650;6.888;2024-03-25T09:44:11;98904.28;;;13.22;34.80
81961;BME280;71462;50.650;6.888;2024-03-25T09:46:37;98905.63;;;12.90;36.28
81961;BME280;71462;50.650;6.888;2024-03-25T09:49:04;98904.44;;;12.70;36.14
81961;BME280;71462;50.650;6.888;2024-03-25T09:51:30;98893.97;;;12.95;36.19
81961;BME280;71462;50.650;6.888;2024-03-25T09:53:56;98893.53;;;12.32;36.83
81961;BME280;71462;50.650;6.888;2024-03-25T09:56:22;98886.28;;;12.07;36.42
81961;BME280;71462;50.650;6.888;2024-03-25T09:58:48;98889.44;;;12.43;35.46
81961;BME280;71462;50.650;6.888;2024-03-25T10:01:14;98887.84;;;11.99;36.33
81961;BME280;71462;50.650;6.888;2024-03-25T10:03:40;98879.81;;;11.99;36.38
81961;BME280;71462;50.650;6.888;2024-03-25T10:06:09;98876.50;;;11.94;36.27
81961;BME280;71462;50.650;6.888;2024-03-25T10:08:35;98870.34;;;12.10;35.51
81961;BME280;71462;50.650;6.888;2024-03-25T10:11:01;98875.38;;;12.55;35.65
81961;BME280;71462;50.650;6.888;2024-03-25T10:13:27;98872.25;;;12.36;36.42
81961;BME280;71462;50.650;6.888;2024-03-25T10:15:55;98865.63;;;12.59;34.58
81961;BME280;71462;50.650;6.888;2024-03-25T10:18:21;98858.03;;;12.78;35.01
81961;BME280;71462;50.650;6.888;2024-03-25T10:20:50;98857.56;;;13.23;34.99
81961;BME280;71462;50.650;6.888;2024-03-25T10:23:19;98850.66;;;12.67;35.42
81961;BME280;71462;50.650;6.888;2024-03-25T10:25:47;98857.78;;;13.48;35.46
81961;BME280;71462;50.650;6.888;2024-03-25T10:28:13;98841.06;;;13.42;35.22
81961;BME280;71462;50.650;6.888;2024-03-25T10:30:40;98850.78;;;13.55;35.55
81961;BME280;71462;50.650;6.888;2024-03-25T10:33:07;98849.03;;;13.89;34.48
81961;BME280;71462;50.650;6.888;2024-03-25T10:35:34;98834.94;;;14.33;34.03
81961;BME280;71462;50.650;6.888;2024-03-25T10:38:02;98839.81;;;13.98;34.25
81961;BME280;71462;50.650;6.888;2024-03-25T10:40:31;98833.44;;;14.24;34.29
81961;BME280;71462;50.650;6.888;2024-03-25T10:43:01;98818.38;;;14.64;34.10
81961;BME280;71462;50.650;6.888;2024-03-25T10:45:34;98814.13;;;14.76;33.12
81961;BME280;71462;50.650;6.888;2024-03-25T10:48:02;98815.66;;;14.31;33.92
81961;BME280;71462;50.650;6.888;2024-03-25T10:50:29;98816.28;;;13.66;35.28
81961;BME280;71462;50.650;6.888;2024-03-25T10:52:57;98813.66;;;12.90;36.38
81961;BME280;71462;50.650;6.888;2024-03-25T10:55:24;98813.56;;;13.16;35.64
81961;BME280;71462;50.650;6.888;2024-03-25T10:57:52;98809.44;;;13.77;34.74
81961;BME280;71462;50.650;6.888;2024-03-25T11:00:22;98809.81;;;13.88;34.13
81961;BME280;71462;50.650;6.888;2024-03-25T11:02:48;98799.75;;;13.55;33.51
81961;BME280;71462;50.650;6.888;2024-03-25T11:05:15;98799.34;;;13.15;33.68
81961;BME280;71462;50.650;6.888;2024-03-25T11:07:41;98800.69;;;13.59;33.05
81961;BME280;71462;50.650;6.888;2024-03-25T11:10:07;98790.25;;;13.87;33.58
81961;BME280;71462;50.650;6.888;2024-03-25T11:12:35;98789.41;;;13.95;33.16
81961;BME280;71462;50.650;6.888;2024-03-25T11:15:02;98783.63;;;13.85;32.74
81961;BME280;71462;50.650;6.888;2024-03-25T11:17:29;98777.75;;;14.57;33.30
81961;BME280;71462;50.650;6.888;2024-03-25T11:20:06;98775.91;;;14.82;32.18
81961;BME280;71462;50.650;6.888;2024-03-25T11:22:32;98777.03;;;14.93;32.57
81961;BME280;71462;50.650;6.888;2024-03-25T11:25:05;98772.22;;;14.99;31.63
81961;BME280;71462;50.650;6.888;2024-03-25T11:27:33;98767.72;;;14.79;30.97
81961;BME280;71462;50.650;6.888;2024-03-25T11:29:59;98777.66;;;13.58;31.35
81961;BME280;71462;50.650;6.888;2024-03-25T11:32:27;98757.41;;;13.82;31.26
81961;BME280;71462;50.650;6.888;2024-03-25T11:34:53;98747.19;;;14.29;30.54
81961;BME280;71462;50.650;6.888;2024-03-25T11:37:19;98741.59;;;14.22;30.86
81961;BME280;71462;50.650;6.888;2024-03-25T11:39:45;98743.19;;;14.47;29.90
81961;BME280;71462;50.650;6.888;2024-03-25T11:42:12;98735.34;;;13.97;29.60
81961;BME280;71462;50.650;6.888;2024-03-25T11:44:38;98737.28;;;13.46;30.93
81961;BME280;71462;50.650;6.888;2024-03-25T11:47:05;98735.03;;;13.48;31.40
81961;BME280;71462;50.650;6.888;2024-03-25T11:49:32;98732.44;;;13.39;32.80
81961;BME280;71462;50.650;6.888;2024-03-25T11:51:58;98726.53;;;13.25;32.55
81961;BME280;71462;50.650;6.888;2024-03-25T11:54:27;98730.63;;;13.23;31.71
81961;BME280;71462;50.650;6.888;2024-03-25T11:56:53;98723.03;;;13.04;32.68
81961;BME280;71462;50.650;6.888;2024-03-25T11:59:19;98722.50;;;12.34;33.26
81961;BME280;71462;50.650;6.888;2024-03-25T12:01:45;98710.19;;;12.25;33.20
81961;BME280;71462;50.650;6.888;2024-03-25T12:04:12;98711.19;;;12.03;32.55
81961;BME280;71462;50.650;6.888;2024-03-25T12:06:39;98706.44;;;12.72;32.38
81961;BME280;71462;50.650;6.888;2024-03-25T12:09:05;98703.63;;;12.69;33.79
81961;BME280;71462;50.650;6.888;2024-03-25T12:11:50;98702.16;;;12.80;32.69
81961;BME280;71462;50.650;6.888;2024-03-25T12:14:16;98696.06;;;12.54;32.58
81961;BME280;71462;50.650;6.888;2024-03-25T12:16:42;98693.44;;;12.92;32.85
81961;BME280;71462;50.650;6.888;2024-03-25T12:19:08;98685.72;;;12.82;32.72
81961;BME280;71462;50.650;6.888;2024-03-25T12:21:34;98683.44;;;13.01;33.57
81961;BME280;71462;50.650;6.888;2024-03-25T12:24:01;98679.00;;;13.47;32.10
81961;BME280;71462;50.650;6.888;2024-03-25T12:26:27;98671.53;;;13.10;31.31
81961;BME280;71462;50.650;6.888;2024-03-25T12:28:53;98670.34;;;12.99;31.46
81961;BME280;71462;50.650;6.888;2024-03-25T12:31:19;98674.78;;;12.57;31.75
81961;BME280;71462;50.650;6.888;2024-03-25T12:33:44;98659.00;;;12.17;32.56
81961;BME280;71462;50.650;6.888;2024-03-25T12:36:11;98657.91;;;12.10;33.14
81961;BME280;71462;50.650;6.888;2024-03-25T12:38:37;98657.47;;;12.46;33.45
81961;BME280;71462;50.650;6.888;2024-03-25T12:41:06;98653.56;;;12.43;31.51
81961;BME280;71462;50.650;6.888;2024-03-25T12:43:32;98649.53;;;12.67;32.55
81961;BME280;71462;50.650;6.888;2024-03-25T12:45:59;98644.34;;;13.12;32.51
81961;BME280;71462;50.650;6.888;2024-03-25T12:48:25;98642.47;;;12.54;33.54
81961;BME280;71462;50.650;6.888;2024-03-25T12:50:51;98643.09;;;12.50;31.58
81961;BME280;71462;50.650;6.888;2024-03-25T12:53:18;98638.50;;;12.89;31.78
81961;BME280;71462;50.650;6.888;2024-03-25T12:55:45;98625.56;;;13.12;32.87
81961;BME280;71462;50.650;6.888;2024-03-25T12:58:13;98624.47;;;12.54;31.57
81961;BME280;71462;50.650;6.888;2024-03-25T13:00:39;98615.38;;;12.46;32.39
81961;BME280;71462;50.650;6.888;2024-03-25T13:03:05;98619.94;;;12.46;32.69
81961;BME280;71462;50.650;6.888;2024-03-25T13:05:32;98613.81;;;12.07;33.72